createdAt,value
2022-11-18T00:04:47.264Z,98446.72
2022-11-18T00:09:50.133Z,98451.66
2022-11-18T00:14:54.282Z,98453.50
2022-11-18T00:19:57.001Z,98447.41
2022-11-18T00:24:59.779Z,98454.66
2022-11-18T00:30:04.282Z,98452.13
2022-11-18T00:35:07.736Z,98462.44
2022-11-18T00:40:11.586Z,98458.19
2022-11-18T00:45:15.735Z,98451.97
2022-11-18T00:50:19.753Z,98452.81
2022-11-18T00:55:23.462Z,98452.81
2022-11-18T01:00:27.761Z,98461.72
2022-11-18T01:05:30.489Z,98460.19
2022-11-18T01:10:33.455Z,98468.97
2022-11-18T01:15:40.852Z,98464.41
2022-11-18T01:20:44.055Z,98473.66
2022-11-18T01:25:48.860Z,98471.81
2022-11-18T01:30:52.957Z,98455.81
2022-11-18T01:35:55.724Z,98462.88
2022-11-18T01:40:58.584Z,98454.81
2022-11-18T01:46:02.695Z,98460.03
2022-11-18T01:51:10.136Z,98453.81
2022-11-18T01:56:18.435Z,98448.59
2022-11-18T02:01:22.677Z,98456.34
2022-11-18T02:06:26.029Z,98459.34
2022-11-18T02:11:46.105Z,98462.03
2022-11-18T02:17:03.970Z,98458.19
2022-11-18T02:22:20.022Z,98458.91
2022-11-18T02:27:54.476Z,98460.03
2022-11-18T02:33:05.974Z,98458.19
2022-11-18T02:38:12.613Z,98463.28
2022-11-18T02:43:23.026Z,98471.66
2022-11-18T02:48:30.087Z,98476.03
2022-11-18T02:53:34.778Z,98468.97
2022-11-18T02:58:37.572Z,98475.19
2022-11-18T03:03:41.705Z,98473.22
2022-11-18T03:08:50.733Z,98468.81
2022-11-18T03:14:09.855Z,98478.88
2022-11-18T03:19:21.648Z,98475.34
2022-11-18T03:24:31.424Z,98485.66
2022-11-18T03:29:37.313Z,98496.72
2022-11-18T03:34:47.659Z,98509.22
2022-11-18T03:39:55.124Z,98517.44
2022-11-18T03:45:03.524Z,98528.06
2022-11-18T03:50:16.901Z,98531.63
2022-11-18T03:55:24.536Z,98542.38
2022-11-18T04:00:30.980Z,98549.75
2022-11-18T04:05:40.205Z,98550.59
2022-11-18T04:10:50.697Z,98539.81
2022-11-18T04:15:55.474Z,98547.91
2022-11-18T04:20:59.532Z,98548.75
2022-11-18T04:26:02.332Z,98549.06
2022-11-18T04:31:05.256Z,98555.56
2022-11-18T04:36:10.204Z,98555.03
2022-11-18T04:41:13.007Z,98550.66
2022-11-18T04:46:15.766Z,98552.81
2022-11-18T04:51:19.926Z,98551.28
2022-11-18T04:56:22.725Z,98563.00
2022-11-18T05:01:25.569Z,98574.25
2022-11-18T05:06:30.276Z,98572.53
2022-11-18T05:11:51.204Z,98582.19
2022-11-18T05:16:54.743Z,98581.50
2022-11-18T05:21:59.393Z,98586.50
2022-11-18T05:27:02.288Z,98588.78
2022-11-18T05:32:05.611Z,98587.19
2022-11-18T05:37:10.047Z,98595.75
2022-11-18T05:42:30.720Z,98614.13
2022-11-18T05:47:53.437Z,98624.31
2022-11-18T05:52:57.901Z,98626.31
2022-11-18T05:58:00.635Z,98633.81
2022-11-18T06:03:09.122Z,98636.81
2022-11-18T06:08:15.995Z,98650.53
2022-11-18T06:13:22.829Z,98652.66
2022-11-18T06:18:27.547Z,98657.50
2022-11-18T06:23:35.709Z,98655.09
2022-11-18T06:28:39.749Z,98668.00
2022-11-18T06:33:42.477Z,98673.63
2022-11-18T06:38:46.556Z,98678.31
2022-11-18T06:43:49.287Z,98686.81
2022-11-18T06:48:52.396Z,98692.59
2022-11-18T06:53:56.619Z,98698.28
2022-11-18T06:59:00.127Z,98699.69
2022-11-18T07:04:03.074Z,98707.19
2022-11-18T07:09:08.250Z,98720.88
2022-11-18T07:14:11.510Z,98720.34
2022-11-18T07:19:15.267Z,98718.91
2022-11-18T07:24:19.771Z,98726.38
2022-11-18T07:29:22.507Z,98728.38
2022-11-18T07:34:25.286Z,98736.00
2022-11-18T07:39:29.408Z,98739.81
2022-11-18T07:44:32.224Z,98748.25
2022-11-18T07:49:35.282Z,98741.44
2022-11-18T07:54:39.543Z,98746.22
2022-11-18T07:59:42.275Z,98759.09
2022-11-18T08:04:45.338Z,98768.28
2022-11-18T08:09:49.470Z,98792.59
2022-11-18T08:14:52.219Z,98794.56
2022-11-18T08:19:54.993Z,98786.06
2022-11-18T08:24:59.136Z,98788.94
2022-11-18T08:30:02.017Z,98795.72
2022-11-18T08:35:10.646Z,98806.28
2022-11-18T08:40:15.571Z,98811.41
2022-11-18T08:45:18.710Z,98809.91
2022-11-18T08:50:21.827Z,98816.94
2022-11-18T08:55:26.071Z,98830.44
2022-11-18T09:00:29.070Z,98834.59
2022-11-18T09:05:31.793Z,98838.59
2022-11-18T09:10:35.984Z,98839.16
2022-11-18T09:15:38.871Z,98847.84
2022-11-18T09:20:41.619Z,98859.28
2022-11-18T09:25:45.837Z,98860.88
2022-11-18T09:30:48.585Z,98866.09
2022-11-18T09:35:51.389Z,98873.03
2022-11-18T09:41:05.661Z,98883.75
2022-11-18T09:46:27.832Z,98891.69
2022-11-18T09:51:36.472Z,98895.09
2022-11-18T09:56:41.642Z,98897.78
2022-11-18T10:01:45.861Z,98900.47
2022-11-18T10:06:50.628Z,98907.41
2022-11-18T10:12:09.984Z,98910.09
2022-11-18T10:17:26.792Z,98918.88
2022-11-18T10:22:34.890Z,98924.84
2022-11-18T10:27:41.543Z,98936.53
2022-11-18T10:33:01.423Z,98948.25
2022-11-18T10:38:08.575Z,98949.00
2022-11-18T10:43:13.647Z,98949.84
2022-11-18T10:48:19.446Z,98955.06
2022-11-18T10:53:32.262Z,98967.66
2022-11-18T10:58:42.124Z,98980.06
2022-11-18T11:03:57.911Z,98984.47
2022-11-18T11:09:03.568Z,98995.19
2022-11-18T11:14:16.589Z,98993.25
2022-11-18T11:19:24.164Z,99004.72
2022-11-18T11:24:28.957Z,99013.06
2022-11-18T11:29:50.682Z,99006.44
2022-11-18T11:35:03.792Z,99004.28
2022-11-18T11:40:25.839Z,99016.56
2022-11-18T11:45:39.132Z,99006.75
2022-11-18T11:51:04.223Z,99013.19
2022-11-18T11:56:28.525Z,99024.56
2022-11-18T12:01:43.028Z,99012.56
2022-11-18T12:06:47.509Z,99022.03
2022-11-18T12:11:56.148Z,99021.66
2022-11-18T12:17:08.122Z,99023.13
2022-11-18T12:22:10.917Z,99030.91
2022-11-18T12:27:35.363Z,99036.03
2022-11-18T12:32:43.253Z,99051.03
2022-11-18T12:38:01.992Z,99051.63
2022-11-18T12:43:23.908Z,99062.97
2022-11-18T12:48:40.098Z,99070.78
2022-11-18T12:53:44.792Z,99068.81
2022-11-18T12:58:48.597Z,99081.13
2022-11-18T13:03:53.938Z,99080.88
2022-11-18T13:09:00.632Z,99091.13
2022-11-18T13:14:23.283Z,99096.22
2022-11-18T13:19:27.403Z,99097.81
2022-11-18T13:24:30.545Z,99099.34
2022-11-18T13:29:43.185Z,99102.75
2022-11-18T13:34:49.834Z,99106.91
2022-11-18T13:39:53.055Z,99114.81
2022-11-18T13:44:57.404Z,99120.09
2022-11-18T13:50:20.923Z,99132.41
2022-11-18T13:55:27.466Z,99142.09
2022-11-18T14:00:33.966Z,99149.03
2022-11-18T14:05:38.187Z,99149.03
2022-11-18T14:10:43.878Z,99154.03
2022-11-18T14:15:46.854Z,99163.69
2022-11-18T14:20:55.692Z,99169.81
2022-11-18T14:26:00.823Z,99184.09
2022-11-18T14:31:07.822Z,99186.66
2022-11-18T14:36:15.552Z,99202.81
2022-11-18T14:41:44.484Z,99201.09
2022-11-18T14:46:52.163Z,99209.91
2022-11-18T14:51:56.821Z,99216.13
2022-11-18T14:57:03.317Z,99233.13
2022-11-18T15:02:06.260Z,99247.47
2022-11-18T15:07:18.589Z,99252.84
2022-11-18T15:12:25.739Z,99247.56
2022-11-18T15:17:29.670Z,99251.97
2022-11-18T15:22:34.591Z,99252.84
2022-11-18T15:27:38.171Z,99256.50
2022-11-18T15:32:41.416Z,99263.63
2022-11-18T15:37:45.737Z,99261.50
2022-11-18T15:42:52.068Z,99274.56
2022-11-18T15:47:55.191Z,99274.31
2022-11-18T15:52:59.365Z,99292.63
2022-11-18T15:58:02.184Z,99285.13
2022-11-18T16:03:05.157Z,99300.91
2022-11-18T16:08:09.243Z,99304.91
2022-11-18T16:13:12.063Z,99303.81
2022-11-18T16:18:15.945Z,99305.22
2022-11-18T16:23:20.124Z,99316.75
2022-11-18T16:28:22.942Z,99334.09
2022-11-18T16:33:25.821Z,99337.47
2022-11-18T16:38:30.144Z,99336.25
2022-11-18T16:43:32.953Z,99339.53
2022-11-18T16:48:35.909Z,99339.25
2022-11-18T16:53:40.030Z,99349.78
2022-11-18T16:58:42.744Z,99359.56
2022-11-18T17:03:45.545Z,99363.81
2022-11-18T17:08:49.999Z,99370.56
2022-11-18T17:13:58.033Z,99373.25
2022-11-18T17:19:03.762Z,99376.69
2022-11-18T17:24:13.620Z,99378.00
2022-11-18T17:29:16.833Z,99386.94
2022-11-18T17:34:20.277Z,99392.31
2022-11-18T17:39:24.977Z,99400.13
2022-11-18T17:44:28.819Z,99413.34
2022-11-18T17:49:31.659Z,99427.81
2022-11-18T17:54:35.952Z,99417.16
2022-11-18T17:59:38.845Z,99423.84
2022-11-18T18:04:41.631Z,99439.91
2022-11-18T18:09:48.856Z,99437.47
2022-11-18T18:14:52.151Z,99450.16
2022-11-18T18:19:54.962Z,99453.13
2022-11-18T18:24:59.173Z,99470.56
2022-11-18T18:30:02.132Z,99464.28
2022-11-18T18:35:06.084Z,99466.03
2022-11-18T18:40:11.272Z,99470.44
2022-11-18T18:45:31.430Z,99479.97
2022-11-18T18:50:34.177Z,99471.59
2022-11-18T18:55:44.504Z,99463.50
2022-11-18T19:00:47.738Z,99494.75
2022-11-18T19:11:29.892Z,99492.91
2022-11-18T19:16:33.051Z,99503.28
2022-11-18T19:21:36.452Z,99510.41
2022-11-18T19:26:40.745Z,99516.66
2022-11-18T19:31:43.490Z,99517.50
2022-11-18T19:36:46.467Z,99515.81
2022-11-18T19:41:50.593Z,99545.47
2022-11-18T19:46:53.446Z,99535.63
2022-11-18T19:51:56.306Z,99541.91
2022-11-18T19:57:00.938Z,99540.78
2022-11-18T20:02:03.812Z,99548.94
2022-11-18T20:07:06.741Z,99541.84
2022-11-18T20:12:10.961Z,99554.44
2022-11-18T20:17:13.867Z,99554.44
2022-11-18T20:22:16.591Z,99557.03
2022-11-18T20:27:21.086Z,99566.00
2022-11-18T20:32:24.146Z,99570.53
2022-11-18T20:37:28.174Z,99569.53
2022-11-18T20:42:52.639Z,99575.91
2022-11-18T20:47:55.787Z,99572.09
2022-11-18T20:52:58.630Z,99578.22
2022-11-18T20:58:02.807Z,99570.72
2022-11-18T21:03:05.629Z,99571.00
2022-11-18T21:08:08.952Z,99577.94
2022-11-18T21:13:30.687Z,99588.75
2022-11-18T21:18:33.430Z,99592.81
2022-11-18T21:23:36.284Z,99577.34
2022-11-18T21:28:40.439Z,99586.19
2022-11-18T21:33:43.187Z,99595.25
2022-11-18T21:38:46.084Z,99597.69
2022-11-18T21:44:04.958Z,99602.75
2022-11-18T21:49:09.857Z,99607.81
2022-11-18T21:54:15.633Z,99604.47
2022-11-18T21:59:19.961Z,99615.63
2022-11-18T22:04:40.318Z,99617.47
2022-11-18T22:09:43.053Z,99625.69
2022-11-18T22:14:47.162Z,99636.16
2022-11-18T22:19:49.877Z,99644.38
2022-11-18T22:24:52.819Z,99650.25
2022-11-18T22:29:56.949Z,99655.06
2022-11-18T22:34:59.713Z,99659.97
2022-11-18T22:40:02.517Z,99664.66
2022-11-18T22:45:09.514Z,99659.63
2022-11-18T22:50:12.324Z,99670.66
2022-11-18T22:55:15.294Z,99671.16
2022-11-18T23:00:20.064Z,99674.84
2022-11-18T23:05:22.804Z,99684.13
2022-11-18T23:10:25.533Z,99686.22
2022-11-18T23:15:29.726Z,99687.19
2022-11-18T23:20:32.458Z,99695.28
2022-11-18T23:25:35.208Z,99691.97
2022-11-18T23:30:39.363Z,99708.38
2022-11-18T23:35:42.110Z,99713.91
2022-11-18T23:40:44.861Z,99724.81
2022-11-18T23:45:48.948Z,99723.06
2022-11-18T23:50:55.616Z,99723.34
2022-11-18T23:55:59.189Z,99709.88
